createdAt,value
2023-01-17T00:02:24.428Z,98883.19
2023-01-17T00:05:09.936Z,98875.41
2023-01-17T00:07:55.849Z,98881.53
2023-01-17T00:10:24.004Z,98869.25
2023-01-17T00:12:54.398Z,98873.56
2023-01-17T00:15:23.025Z,98877.25
2023-01-17T00:17:50.532Z,98866.00
2023-01-17T00:20:37.289Z,98873.16
2023-01-17T00:23:26.665Z,98874.78
2023-01-17T00:26:05.732Z,98867.44
2023-01-17T00:28:36.755Z,98861.91
2023-01-17T00:31:04.236Z,98864.38
2023-01-17T00:33:31.199Z,98858.06
2023-01-17T00:35:58.751Z,98858.88
2023-01-17T00:38:26.966Z,98862.38
2023-01-17T00:40:53.829Z,98868.31
2023-01-17T00:43:42.456Z,98866.25
2023-01-17T00:46:28.087Z,98860.94
2023-01-17T00:49:13.526Z,98871.38
2023-01-17T00:51:58.689Z,98872.41
2023-01-17T00:54:44.187Z,98862.38
2023-01-17T00:57:54.863Z,98879.78
2023-01-17T01:00:40.380Z,98876.91
2023-01-17T01:03:29.834Z,98866.91
2023-01-17T01:06:15.839Z,98874.69
2023-01-17T01:09:01.321Z,98869.16
2023-01-17T01:11:46.734Z,98862.19
2023-01-17T01:14:31.781Z,98871.00
2023-01-17T01:17:17.207Z,98862.00
2023-01-17T01:20:02.820Z,98865.06
2023-01-17T01:22:48.881Z,98856.69
2023-01-17T01:25:34.384Z,98864.47
2023-01-17T01:28:30.142Z,98868.16
2023-01-17T01:31:18.195Z,98863.84
2023-01-17T01:33:45.282Z,98861.00
2023-01-17T01:36:12.357Z,98847.06
2023-01-17T01:38:39.370Z,98849.13
2023-01-17T01:41:06.332Z,98857.72
2023-01-17T01:43:39.281Z,98871.63
2023-01-17T01:46:06.293Z,98852.00
2023-01-17T01:48:33.872Z,98836.03
2023-01-17T01:51:02.507Z,98837.88
2023-01-17T01:53:32.107Z,98854.25
2023-01-17T01:55:59.357Z,98851.38
2023-01-17T01:58:28.943Z,98852.81
2023-01-17T02:00:55.850Z,98857.56
2023-01-17T02:03:27.435Z,98859.00
2023-01-17T02:05:54.301Z,98857.78
2023-01-17T02:08:23.149Z,98849.19
2023-01-17T02:10:50.865Z,98855.94
2023-01-17T02:13:20.085Z,98852.25
2023-01-17T02:15:56.147Z,98859.84
2023-01-17T02:18:55.418Z,98864.56
2023-01-17T02:21:48.363Z,98852.69
2023-01-17T02:24:33.817Z,98830.38
2023-01-17T02:27:15.737Z,98837.53
2023-01-17T02:30:01.262Z,98832.41
2023-01-17T02:32:47.204Z,98836.94
2023-01-17T02:35:20.528Z,98825.47
2023-01-17T02:37:50.443Z,98826.28
2023-01-17T02:40:22.881Z,98837.94
2023-01-17T02:43:02.829Z,98834.25
2023-01-17T02:45:29.615Z,98821.78
2023-01-17T02:47:56.564Z,98819.31
2023-01-17T02:50:46.717Z,98822.81
2023-01-17T02:53:22.841Z,98813.19
2023-01-17T02:55:52.857Z,98822.19
2023-01-17T02:58:29.008Z,98828.53
2023-01-17T03:01:03.631Z,98813.59
2023-01-17T03:03:45.881Z,98809.91
2023-01-17T03:06:12.768Z,98811.75
2023-01-17T03:08:41.560Z,98801.72
2023-01-17T03:11:12.829Z,98802.53
2023-01-17T03:13:39.874Z,98806.22
2023-01-17T03:16:08.970Z,98801.91
2023-01-17T03:18:36.700Z,98802.53
2023-01-17T03:21:03.619Z,98807.66
2023-01-17T03:23:30.499Z,98804.19
2023-01-17T03:25:57.371Z,98808.47
2023-01-17T03:28:24.327Z,98800.69
2023-01-17T03:30:51.319Z,98807.03
2023-01-17T03:33:18.634Z,98806.22
2023-01-17T03:35:46.099Z,98804.38
2023-01-17T03:38:13.147Z,98800.06
2023-01-17T03:40:40.090Z,98805.59
2023-01-17T03:43:07.472Z,98799.06
2023-01-17T03:45:34.737Z,98795.16
2023-01-17T03:48:02.095Z,98797.63
2023-01-17T03:50:29.567Z,98801.09
2023-01-17T03:53:01.947Z,98804.59
2023-01-17T03:55:31.859Z,98801.91
2023-01-17T03:57:59.083Z,98802.56
2023-01-17T04:00:28.623Z,98802.38
2023-01-17T04:02:55.790Z,98804.81
2023-01-17T04:05:22.806Z,98803.78
2023-01-17T04:07:51.481Z,98804.00
2023-01-17T04:10:21.784Z,98803.38
2023-01-17T04:12:58.264Z,98815.06
2023-01-17T04:15:27.840Z,98817.50
2023-01-17T04:17:55.997Z,98819.16
2023-01-17T04:20:37.707Z,98821.81
2023-01-17T04:23:05.714Z,98818.13
2023-01-17T04:25:33.102Z,98817.09
2023-01-17T04:28:01.336Z,98825.09
2023-01-17T04:30:32.994Z,98827.75
2023-01-17T04:33:03.787Z,98824.06
2023-01-17T04:35:33.723Z,98819.56
2023-01-17T04:38:01.141Z,98824.69
2023-01-17T04:40:29.958Z,98819.75
2023-01-17T04:42:58.677Z,98822.44
2023-01-17T04:48:09.343Z,98832.47
2023-01-17T04:50:44.044Z,98823.44
2023-01-17T04:53:12.241Z,98814.66
2023-01-17T04:55:47.120Z,98828.78
2023-01-17T04:58:42.124Z,98826.13
2023-01-17T05:01:46.099Z,98827.53
2023-01-17T06:04:56.317Z,98831.84
2023-01-17T07:28:43.430Z,98852.13
2023-01-17T08:17:23.921Z,98853.63
2023-01-17T08:23:48.324Z,98846.44
2023-01-17T08:26:22.521Z,98839.88
2023-01-17T08:29:00.939Z,98850.94
2023-01-17T08:31:43.512Z,98848.06
2023-01-17T08:34:26.638Z,98858.31
2023-01-17T08:36:54.189Z,98847.22
2023-01-17T08:39:32.932Z,98852.34
2023-01-17T08:47:07.312Z,98836.06
2023-01-17T08:54:27.412Z,98844.44
2023-01-17T09:00:29.753Z,98833.88
2023-01-17T09:02:57.151Z,98845.16
2023-01-17T09:05:28.931Z,98823.38
2023-01-17T09:08:15.058Z,98833.63
2023-01-17T09:14:18.808Z,98829.66
2023-01-17T09:16:52.235Z,98840.31
2023-01-17T09:19:26.986Z,98823.41
2023-01-17T09:22:04.540Z,98829.94
2023-01-17T09:24:40.922Z,98833.22
2023-01-17T09:29:50.538Z,98827.69
2023-01-17T09:32:20.370Z,98823.31
2023-01-17T09:34:52.610Z,98825.13
2023-01-17T09:37:22.228Z,98833.28
2023-01-17T09:39:56.512Z,98833.28
2023-01-17T09:42:36.662Z,98825.88
2023-01-17T09:45:04.484Z,98829.16
2023-01-17T09:47:42.381Z,98839.84
2023-01-17T09:50:41.592Z,98829.97
2023-01-17T09:53:36.564Z,98825.88
2023-01-17T09:56:44.374Z,98831.66
2023-01-17T09:59:19.311Z,98839.25
2023-01-17T10:01:52.049Z,98825.88
2023-01-17T10:04:40.185Z,98832.25
2023-01-17T10:07:33.746Z,98821.56
2023-01-17T10:10:33.568Z,98822.38
2023-01-17T10:13:19.722Z,98830.63
2023-01-17T10:15:54.017Z,98830.03
2023-01-17T10:18:52.567Z,98826.53
2023-01-17T10:21:19.999Z,98827.94
2023-01-17T10:24:01.374Z,98830.41
2023-01-17T10:26:45.279Z,98831.44
2023-01-17T10:29:32.502Z,98822.81
2023-01-17T10:36:27.235Z,98825.50
2023-01-17T10:39:32.613Z,98824.03
2023-01-17T10:42:41.439Z,98812.22
2023-01-17T10:45:56.670Z,98809.31
2023-01-17T10:48:36.451Z,98813.16
2023-01-17T10:51:16.825Z,98808.19
2023-01-17T10:53:55.184Z,98809.22
2023-01-17T10:59:51.698Z,98813.53
2023-01-17T11:04:04.431Z,98822.16
2023-01-17T11:07:45.729Z,98815.31
2023-01-17T11:10:34.173Z,98823.34
2023-01-17T11:13:26.668Z,98819.03
2023-01-17T11:20:05.541Z,98814.88
2023-01-17T11:23:04.815Z,98815.25
2023-01-17T11:25:36.156Z,98807.63
2023-01-17T11:28:48.784Z,98816.25
2023-01-17T11:31:31.910Z,98805.94
2023-01-17T11:34:16.157Z,98812.69
2023-01-17T11:36:56.042Z,98813.50
2023-01-17T11:45:26.682Z,98813.88
2023-01-17T11:48:11.776Z,98814.91
2023-01-17T11:51:05.125Z,98815.72
2023-01-17T11:53:58.082Z,98807.94
2023-01-17T11:56:34.517Z,98814.91
2023-01-17T11:59:19.700Z,98809.34
2023-01-17T12:02:30.379Z,98810.97
2023-01-17T12:05:29.270Z,98833.78
2023-01-17T12:08:22.751Z,98830.06
2023-01-17T12:11:29.117Z,98807.03
2023-01-17T15:28:10.215Z,98765.22
2023-01-17T15:31:18.105Z,98778.13
2023-01-17T15:43:22.110Z,98780.44
2023-01-17T15:50:50.370Z,98784.59
2023-01-17T15:59:03.997Z,98769.81
2023-01-17T16:36:04.234Z,98763.22
2023-01-17T20:36:57.479Z,98803.63
2023-01-17T21:31:40.044Z,98792.53
2023-01-17T22:09:26.983Z,98776.22
